KOGB

Orangeburg Municipal Airport

Orangeburg, South Carolina, USA
KOGB 212040Z 2121/2218 23012KT P6SM SCT050 BKN150 FM220000 22007KT P6SM VCTS BKN035CB BKN120 FM220800 VRB05KT P6SM SCT010 BKN060 FM221500 26008KT P6SM SCT250
Issued Valid From Valid To
Jul-21 @ 20:40 UTC
(2 hours ago)
Jul-21 @ 21:00 UTC
(2 hours ago)
Jul-22 @ 18:00 UTC
(in 19 hours)
Jul-21 @ 21:00 to Jul-22 @ 00:00
KOGB 212040Z 2121/2218 23012KT P6SM SCT050 BKN150
Wind Visibility Clouds
230° at 12 knots Greater than 6 miles
  • Scattered at 5,000' AGL
  • Broken at 15,000' AGL
From Jul-22 @ 00:00 to Jul-22 @ 08:00
FM220000 22007KT P6SM VCTS BKN035CB BKN120
Wind Visibility Clouds Conditions
220° at 7 knots Greater than 6 miles
  • Broken at 3,500' AGL
  • Broken at 12,000' AGL
  • Area Thunderstorm
From Jul-22 @ 08:00 to Jul-22 @ 15:00
FM220800 VRB05KT P6SM SCT010 BKN060
Wind Visibility Clouds
Variable at 5 knots Greater than 6 miles
  • Scattered at 1,000' AGL
  • Broken at 6,000' AGL
From Jul-22 @ 15:00 to Jul-22 @ 18:00
FM221500 26008KT P6SM SCT250
Wind Visibility Clouds
260° at 8 knots Greater than 6 miles
  • Scattered at 25,000' AGL
KOGB 212040Z 2121/2218 23012KT P6SM SCT050 BKN150 FM220000 22007KT P6SM VCTS BKN035CB BKN120 FM220800 VRB05KT P6SM SCT010 BKN060 FM221500 26008KT P6SM SCT250
Issued Jul-21 @ 20:40 UTC
(2 hours ago)
Valid From Jul-21 @ 21:00 UTC
(2 hours ago)
Valid To Jul-22 @ 18:00 UTC
(in 19 hours)
Jul-21 @ 21:00 - Jul-22 @ 00:00
Wind Visibility
230° at 12 knots Greater than 6 miles
Clouds
  • Scattered at 5,000' AGL
  • Broken at 15,000' AGL
From Jul-22 @ 00:00 - Jul-22 @ 08:00
Wind Visibility
220° at 7 knots Greater than 6 miles
Clouds
  • Broken at 3,500' AGL
  • Broken at 12,000' AGL
Conditions
  • Area Thunderstorm
From Jul-22 @ 08:00 - Jul-22 @ 15:00
Wind Visibility
Variable at 5 knots Greater than 6 miles
Clouds
  • Scattered at 1,000' AGL
  • Broken at 6,000' AGL
From Jul-22 @ 15:00 - Jul-22 @ 18:00
Wind Visibility
260° at 8 knots Greater than 6 miles
Clouds
  • Scattered at 25,000' AGL